Accueil
METAR-TAF:

METAR-TAF

Aéroports :

Aéroport international de Damas

Damas, Syrie

latitude: 33-25N, longitude: 036-31E, altitude: 608 m

Observation

Température
Pression

METAR: OSDI 202200

Heure: 01:48 (22:48 UTC)

Prévision

Le bulletin a été fait il y a 6 heures et 48 minutes, à 16:00 UTC
Prévision valable du 20 à 18 UTC au 21 à 24 UTC
Vent 10 kt de sud-ouest
Visibilité 10 km ou plus
pas de nuages en-dessous de 1500 mètres et pas de cumulonimbus.
Temporairement
du 21 à 04 UTC au 21 à 18 UTC
Vent 15 kt de ouest/sud-ouest avec des rafales jusqu'à 25 kt
Visibilité 10 km ou plus
Quelques nuages à une hauteur de 3000 ft

TAF: OSDI 201600Z 2018/2124 22010KT CAVOK TEMPO 2104/2118 25015G25KT 9999 FEW030

Observations et prévisions météorologiques de plus de 4000 aéroports (messages METAR et TAF).

Les stations disponibles sont représentées par des disques jaunes et rouges sur la carte.

Passer la souris dessus pour voir le nom de la station.

Cliquer dessus pour voir les observations et prévisions météorologiques.

Pour changer de carte: cliquez sur les boutons verts avec une croix noire pour zoomer, sur le bouton vert avec un tiret pour effectuer un zoom arrière, ou sur les flèches vertes pour les cartes adjacentes.


METAR-TAF: